Terminal Aerodrome Forecast
Issued by NWS Mt. Holly, NJ

Home | Current Version | Previous Version | Text Only | Print | Product List | Glossary On
Versions: 1 2 3 4 5 6 7 8 9 10 11 12 13 14 15 16 17 18 19 20 21 22 23 24 25 26 27 28 29 30 31 32 33 34 35 36 37 38 39 40 41 42 43 44 45 46 47 48 49 50
643
FTUS41 KPHI 291747
TAFABE
TAF
KABE 291747Z 2918/3018 12009KT P6SM OVC040
     FM292300 09006KT 6SM BR OVC012
      TEMPO 2923/3003 4SM -SHRA
     FM300300 07005KT 4SM BR OVC010
     FM301200 05004KT P6SM OVC015
     FM301500 09006KT P6SM BKN040=

USA.gov is the U.S. government's official web portal to all federal, state and local government web resources and services.